Search METAR Data

METAR Data for ENMS:

ENMS 241520Z 02004KT 340V060 9999 BKN047 06/M01 Q1008 RMK WIND 412FT VRB01KT